createdAt,value
2019-05-10T09:29:46.514Z,1.00
2019-05-10T09:32:14.800Z,0.98
2019-05-10T09:34:43.119Z,1.50
2019-05-10T09:37:14.319Z,2.58
2019-05-10T09:39:42.390Z,1.20
2019-05-10T09:42:24.875Z,1.82
2019-05-10T09:44:41.099Z,3.55
2019-05-10T09:47:09.447Z,2.12
2019-05-10T09:49:37.752Z,2.45
2019-05-10T15:30:55.069Z,4.85
2019-05-10T15:33:23.447Z,5.03
2019-05-10T15:35:53.891Z,4.72
2019-05-10T15:38:21.841Z,2.85
2019-05-10T15:40:50.250Z,4.00
2019-05-10T15:43:20.102Z,5.47
2019-05-10T15:45:52.566Z,3.37
2019-05-10T15:48:18.720Z,2.70
2019-05-10T15:50:47.123Z,3.45
2019-05-10T15:53:19.418Z,6.40
2019-05-10T15:55:45.502Z,4.00
2019-05-10T15:58:13.886Z,6.92
2019-05-10T16:00:42.238Z,10.75
2019-05-10T16:03:10.573Z,13.03
2019-05-10T16:05:43.609Z,5.60
2019-05-10T16:08:08.996Z,16.15
2019-05-10T16:10:39.560Z,10.10
2019-05-10T16:13:07.463Z,11.35
2019-05-10T16:15:35.797Z,11.95
2019-05-10T16:18:04.540Z,8.48
2019-05-10T16:20:37.277Z,13.08
2019-05-10T16:23:08.345Z,12.43
2019-05-10T16:25:41.122Z,7.75
2019-05-10T16:28:03.216Z,13.20
2019-05-10T16:30:31.501Z,11.95
2019-05-10T16:32:59.873Z,10.65
2019-05-10T16:35:38.421Z,13.75
2019-05-10T16:37:58.276Z,10.85
2019-05-10T16:40:26.570Z,10.38
2019-05-10T16:42:55.158Z,9.60
2019-05-10T16:45:23.441Z,8.78
2019-05-10T16:47:51.834Z,9.98
2019-05-10T16:50:20.289Z,11.93
2019-05-10T16:52:48.624Z,11.75
2019-05-10T16:55:16.999Z,11.48
2019-05-10T16:57:45.344Z,10.65
2019-05-10T17:00:14.077Z,11.68
2019-05-10T17:02:43.929Z,10.15
2019-05-10T17:05:15.214Z,10.13
2019-05-10T17:07:42.551Z,9.30
2019-05-10T17:10:11.152Z,10.93
2019-05-10T17:12:39.483Z,12.10
2019-05-10T17:15:08.836Z,12.05
2019-05-10T17:17:39.169Z,9.95
2019-05-10T17:20:14.171Z,8.38
2019-05-10T17:22:38.605Z,10.08
2019-05-10T17:25:11.927Z,14.13
2019-05-10T17:27:40.251Z,10.25
2019-05-10T17:30:08.922Z,9.38
2019-05-10T17:32:37.220Z,7.67
2019-05-10T17:35:07.486Z,10.72
2019-05-10T17:37:37.422Z,7.25
2019-05-10T17:40:10.170Z,8.65
